Time;durP1;ratioP1;P1;durP2;ratioP2;P2;SDS_P1;SDS_P2;PMS_P1;PMS_P2;Temp;Humidity;BMP_temperature;BMP_pressure;BME280_temperature;BME280_humidity;BME280_pressure;Samples;Min_cycle;Max_cycle;Signal;HPM_P1;HPM_P2
2021/06/16 00:01:39;;;;;;;9.07;8.32;;;;;;;;;;3618227;39;20409;-78
2021/06/16 00:04:07;;;;;;;10.40;9.38;;;;;;;;;;3620061;39;20348;-79
2021/06/16 00:06:33;;;;;;;9.53;8.73;;;;;;;;;;3619315;39;20350;-78
2021/06/16 00:08:59;;;;;;;11.27;10.13;;;;;;;;;;3608838;39;20761;-77
2021/06/16 00:11:26;;;;;;;10.10;9.23;;;;;;;;;;3609840;39;20386;-79
2021/06/16 00:13:52;;;;;;;10.20;9.20;;;;;;;;;;3609126;39;20386;-78
2021/06/16 00:16:19;;;;;;;11.77;10.68;;;;;;;;;;3618651;39;20418;-76
2021/06/16 00:18:45;;;;;;;9.70;8.80;;;;;;;;;;3609617;39;20403;-79
2021/06/16 00:21:13;;;;;;;11.00;10.00;;;;;;;;;;3610954;39;20394;-76
2021/06/16 00:26:14;;;;;;;12.13;10.87;;;;;;;;;;3583731;40;20407;-77
2021/06/16 00:28:40;;;;;;;11.30;10.20;;;;;;;;;;3569154;40;20379;-77
2021/06/16 00:31:06;;;;;;;9.68;8.80;;;;;;;;;;3568363;40;20359;-77
2021/06/16 00:36:01;;;;;;;10.10;9.20;;;;;;;;;;3609510;39;20399;-77
2021/06/16 00:40:58;;;;;;;11.07;10.00;;;;;;;;;;3616631;39;20495;-77
2021/06/16 00:43:24;;;;;;;10.40;9.50;;;22.50;99.90;;;;;;3618645;39;20827;-79
2021/06/16 00:45:50;;;;;;;12.00;10.88;;;21.30;99.90;;;;;;3619529;39;20760;-80
2021/06/16 00:48:16;;;;;;;10.63;9.65;;;21.20;99.90;;;;;;3618216;39;20395;-79
2021/06/16 00:53:16;;;;;;;11.23;10.23;;;21.10;99.90;;;;;;3618747;39;20469;-75
2021/06/16 00:55:43;;;;;;;11.53;10.43;;;21.10;99.90;;;;;;3619407;39;20395;-77
2021/06/16 00:58:12;;;;;;;10.77;9.77;;;21.00;99.90;;;;;;3619478;39;20371;-77
2021/06/16 01:00:42;;;;;;;13.38;12.15;;;21.00;99.90;;;;;;3619278;39;20344;-75
2021/06/16 01:03:12;;;;;;;10.27;9.38;;;21.00;99.90;;;;;;3618750;39;20708;-77
2021/06/16 01:05:41;;;;;;;12.63;11.32;;;20.90;99.90;;;;;;3606035;40;20448;-78
2021/06/16 01:08:08;;;;;;;9.57;8.70;;;21.00;99.90;;;;;;3618652;39;20348;-75
2021/06/16 01:20:58;;;;;;;11.30;10.20;;;20.90;99.90;;;;;;3602573;39;20385;-77
2021/06/16 01:23:44;;;;;;;11.00;10.07;;;20.90;99.90;;;;;;3608454;40;20372;-79
2021/06/16 01:26:18;;;;;;;11.38;10.32;;;20.90;99.90;;;;;;3599207;40;20370;-76
2021/06/16 01:28:44;;;;;;;10.90;10.00;;;20.90;99.90;;;;;;3599861;40;20350;-79
2021/06/16 01:31:14;;;;;;;11.57;10.48;;;20.90;99.90;;;;;;3591937;39;20407;-76
2021/06/16 01:33:40;;;;;;;11.98;10.88;;;20.90;99.90;;;;;;3610706;39;20353;-78
2021/06/16 01:36:09;;;;;;;12.60;11.40;;;20.90;99.90;;;;;;3600221;40;20404;-79
2021/06/16 01:38:35;;;;;;;12.18;11.07;;;20.80;99.90;;;;;;3610650;39;20344;-77
2021/06/16 01:41:03;;;;;;;11.75;10.68;;;20.70;99.90;;;;;;3610756;40;20720;-77
2021/06/16 01:43:31;;;;;;;11.25;10.20;;;20.70;99.90;;;;;;3601534;40;20384;-77
2021/06/16 01:46:00;;;;;;;11.70;10.67;;;20.70;99.90;;;;;;3599584;40;20411;-78
2021/06/16 01:48:28;;;;;;;11.32;10.43;;;20.60;99.90;;;;;;3599582;40;20405;-78
2021/06/16 01:50:54;;;;;;;11.88;10.77;;;20.70;99.90;;;;;;3608530;40;20356;-78
2021/06/16 01:53:22;;;;;;;11.77;10.63;;;20.70;99.90;;;;;;3609030;40;20357;-77
2021/06/16 01:55:49;;;;;;;10.40;9.50;;;20.60;99.90;;;;;;3600309;40;20397;-79
2021/06/16 01:58:16;;;;;;;10.70;9.80;;;20.60;99.90;;;;;;3608563;40;20460;-78
2021/06/16 02:00:45;;;;;;;10.87;9.87;;;20.60;99.90;;;;;;3608907;40;20385;-77
2021/06/16 02:03:11;;;;;;;11.73;10.63;;;20.60;99.90;;;;;;3599883;40;20714;-77
2021/06/16 02:05:37;;;;;;;10.73;9.77;;;20.50;99.90;;;;;;3599487;40;20416;-80
2021/06/16 02:08:05;;;;;;;12.23;11.03;;;20.50;99.90;;;;;;3599853;40;20400;-78
2021/06/16 02:10:33;;;;;;;10.50;9.40;;;;;;;;;;3608588;40;20776;-78
2021/06/16 02:13:01;;;;;;;12.50;11.30;;;;;;;;;;3608105;40;20773;-79
2021/06/16 02:15:29;;;;;;;10.63;9.63;;;;;;;;;;3608142;40;20337;-78
2021/06/16 02:17:58;;;;;;;10.40;9.43;;;;;;;;;;3607542;40;20925;-78
2021/06/16 02:20:24;;;;;;;10.65;9.55;;;;;;;;;;3607998;39;20393;-77
2021/06/16 02:22:50;;;;;;;11.02;10.00;;;;;;;;;;3605089;40;20429;-77
2021/06/16 02:25:17;;;;;;;12.20;10.98;;;;;;;;;;3597320;40;20413;-78
2021/06/16 02:27:43;;;;;;;11.45;10.40;;;;;;;;;;3598154;40;20361;-78
2021/06/16 02:30:10;;;;;;;12.00;10.88;;;;;;;;;;3597373;40;20409;-79
2021/06/16 02:32:37;;;;;;;12.40;11.02;;;;;;;;;;3598682;40;20359;-76
2021/06/16 02:35:05;;;;;;;11.23;10.23;;;;;;;;;;3598605;40;20627;-77
2021/06/16 02:37:33;;;;;;;10.90;9.90;;;;;;;;;;3598407;40;20615;-77
2021/06/16 02:40:04;;;;;;;12.02;10.93;;;;;;;;;;3598759;40;20354;-78
2021/06/16 02:42:30;;;;;;;11.53;10.53;;;;;;;;;;3598623;40;20354;-77
2021/06/16 02:44:57;;;;;;;11.88;9.93;;;;;;;;;;3597104;40;20403;-78
2021/06/16 02:47:23;;;;;;;11.27;9.95;;;;;;;;;;3605219;40;20394;-78
2021/06/16 02:49:53;;;;;;;11.02;9.93;;;;;;;;;;3605117;40;20398;-80
2021/06/16 02:52:21;;;;;;;11.80;10.73;;;;;;;;;;3605232;40;20409;-79
2021/06/16 02:54:50;;;;;;;10.20;9.20;;;;;;;;;;3597915;40;20359;-78
2021/06/16 02:59:52;;;;;;;8.70;7.82;;;20.50;99.90;;;;;;3597930;39;20396;-76
2021/06/16 03:04:50;;;;;;;9.05;8.25;;;20.90;99.90;;;;;;3607263;40;20437;-77
2021/06/16 03:07:17;;;;;;;8.52;7.78;;;20.90;99.90;;;;;;3607784;40;20352;-76
2021/06/16 03:09:46;;;;;;;8.30;7.50;;;21.00;99.90;;;;;;3608194;40;20345;-78
2021/06/16 03:12:12;;;;;;;8.73;7.93;;;21.00;99.90;;;;;;3598004;40;20451;-78
2021/06/16 03:14:39;;;;;;;8.85;8.05;;;21.10;99.90;;;;;;3597778;40;20397;-76
2021/06/16 03:17:06;;;;;;;8.40;7.63;;;21.10;99.90;;;;;;3597510;40;20407;-79
2021/06/16 03:19:33;;;;;;;8.70;7.80;;;21.00;99.90;;;;;;3597841;40;20419;-81
2021/06/16 03:22:02;;;;;;;8.27;7.47;;;21.10;99.90;;;;;;3597233;40;20397;-78
2021/06/16 03:24:29;;;;;;;8.13;7.27;;;21.10;99.90;;;;;;3605898;40;20384;-77
2021/06/16 03:26:57;;;;;;;8.38;7.10;;;21.10;99.90;;;;;;3606171;40;20359;-78
2021/06/16 03:29:23;;;;;;;8.20;7.43;;;21.10;99.90;;;;;;3597173;40;20412;-76
2021/06/16 03:31:52;;;;;;;8.60;7.88;;;21.20;99.90;;;;;;3605855;39;20614;-79
2021/06/16 03:34:19;;;;;;;7.95;7.15;;;21.20;99.90;;;;;;3596471;40;20657;-78
2021/06/16 03:36:47;;;;;;;8.32;7.53;;;21.20;99.90;;;;;;3604550;40;20815;-76
2021/06/16 03:39:14;;;;;;;8.20;7.32;;;21.20;99.90;;;;;;3605424;40;20371;-77
2021/06/16 03:41:43;;;;;;;8.30;7.37;;;21.30;99.90;;;;;;3606195;40;20403;-78
2021/06/16 03:44:11;;;;;;;7.47;6.77;;;21.30;99.90;;;;;;3596378;40;20404;-77
2021/06/16 03:46:39;;;;;;;8.15;7.05;;;21.30;99.90;;;;;;3596945;40;20403;-77
2021/06/16 03:49:08;;;;;;;7.75;6.82;;;21.30;99.90;;;;;;3604315;40;20415;-79
2021/06/16 03:51:35;;;;;;;7.47;6.85;;;21.40;99.90;;;;;;3595129;40;20461;-76
2021/06/16 03:54:03;;;;;;;6.97;6.38;;;21.40;99.90;;;;;;3595981;40;20768;-76
2021/06/16 03:56:29;;;;;;;7.88;7.07;;;21.50;99.90;;;;;;3594827;40;20471;-77
2021/06/16 03:58:55;;;;;;;7.47;6.87;;;21.50;99.90;;;;;;3604131;40;20737;-76
2021/06/16 04:01:23;;;;;;;7.72;7.03;;;21.60;99.90;;;;;;3594545;40;20416;-78
2021/06/16 04:03:49;;;;;;;7.65;6.85;;;21.60;99.90;;;;;;3612719;39;20413;-77
2021/06/16 04:06:16;;;;;;;7.30;6.60;;;21.60;99.90;;;;;;3628011;39;20700;-79
2021/06/16 04:08:46;;;;;;;7.20;6.60;;;21.70;99.90;;;;;;3618299;39;20405;-79
2021/06/16 04:11:13;;;;;;;7.60;6.90;;;21.60;99.90;;;;;;3627448;39;20353;-78
2021/06/16 04:13:39;;;;;;;7.70;6.90;;;21.60;99.90;;;;;;3627630;39;20348;-76
2021/06/16 04:16:06;;;;;;;7.65;6.95;;;21.70;99.90;;;;;;3627665;39;20353;-78
2021/06/16 04:18:35;;;;;;;8.55;6.88;;;21.60;99.90;;;;;;3617921;39;20397;-78
2021/06/16 04:21:01;;;;;;;8.40;7.43;;;21.60;99.90;;;;;;3617115;39;20408;-77
2021/06/16 04:23:27;;;;;;;7.93;7.20;;;21.60;99.90;;;;;;3616768;39;20362;-78
2021/06/16 04:25:53;;;;;;;7.53;6.88;;;21.50;99.90;;;;;;3607978;39;20444;-78
2021/06/16 04:28:19;;;;;;;7.18;6.47;;;21.60;99.90;;;;;;3610483;39;20803;-77
2021/06/16 04:30:45;;;;;;;7.20;6.50;;;21.60;99.90;;;;;;3609384;39;20691;-77
2021/06/16 04:33:11;;;;;;;8.23;6.63;;;21.60;99.90;;;;;;3608105;39;20446;-80
2021/06/16 04:35:38;;;;;;;7.03;6.32;;;21.60;99.90;;;;;;3617978;39;20398;-81
2021/06/16 04:38:04;;;;;;;7.82;6.72;;;21.60;99.90;;;;;;3618127;39;20350;-78
2021/06/16 04:40:30;;;;;;;8.03;7.03;;;21.60;99.90;;;;;;3618739;39;20352;-78
2021/06/16 04:42:56;;;;;;;7.72;6.53;;;21.60;99.90;;;;;;3618783;39;20357;-77
2021/06/16 04:45:22;;;;;;;7.30;6.60;;;21.70;99.90;;;;;;3591360;40;20424;-77
2021/06/16 04:47:48;;;;;;;7.03;6.43;;;21.70;99.90;;;;;;3609005;39;20411;-78
2021/06/16 04:50:16;;;;;;;7.20;6.57;;;21.60;99.90;;;;;;3619001;39;20391;-78
2021/06/16 04:52:43;;;;;;;7.05;6.35;;;21.70;99.90;;;;;;3619440;39;20362;-75
2021/06/16 04:55:12;;;;;;;7.07;6.18;;;21.70;99.90;;;;;;3609303;39;20482;-78
2021/06/16 04:57:38;;;;;;;8.05;6.70;;;21.80;99.90;;;;;;3619831;39;20818;-78
2021/06/16 05:00:05;;;;;;;7.55;6.85;;;21.80;99.90;;;;;;3619749;39;20690;-78
2021/06/16 05:02:31;;;;;;;7.90;7.10;;;21.80;99.90;;;;;;3619083;39;20377;-78
2021/06/16 05:04:58;;;;;;;7.27;6.57;;;21.80;99.90;;;;;;3607541;40;20408;-79
2021/06/16 05:07:24;;;;;;;7.13;6.50;;;21.80;99.90;;;;;;3607181;40;20400;-79
2021/06/16 05:09:52;;;;;;;7.60;6.88;;;21.90;99.90;;;;;;3618023;39;20477;-78
2021/06/16 05:12:18;;;;;;;7.03;6.33;;;21.90;99.90;;;;;;3618161;39;20488;-76
2021/06/16 05:14:43;;;;;;;7.63;6.88;;;22.00;99.90;;;;;;3617928;39;20499;-80
2021/06/16 05:17:10;;;;;;;7.40;6.70;;;22.10;99.90;;;;;;3618724;39;20395;-78
2021/06/16 05:19:36;;;;;;;7.88;7.07;;;22.10;99.90;;;;;;3617772;39;20430;-79
2021/06/16 05:22:10;;;;;;;7.30;6.70;;;22.10;99.90;;;;;;3618058;39;20411;-77
2021/06/16 05:24:36;;;;;;;7.70;7.00;;;22.10;99.90;;;;;;3610353;39;20398;-77
2021/06/16 05:27:05;;;;;;;7.72;7.03;;;22.20;99.90;;;;;;3619814;39;20354;-76
2021/06/16 05:29:31;;;;;;;7.33;6.70;;;22.30;99.90;;;;;;3608821;40;20430;-78
2021/06/16 05:31:57;;;;;;;8.70;7.10;;;22.30;99.90;;;;;;3606147;40;20785;-76
2021/06/16 05:34:23;;;;;;;6.83;6.23;;;22.40;99.90;;;;;;3608774;40;20364;-79
2021/06/16 05:36:50;;;;;;;8.03;7.00;;;22.40;99.90;;;;;;3606807;39;20404;-76
2021/06/16 05:41:44;;;;;;;7.37;6.67;;;22.60;99.90;;;;;;3614255;39;20474;-73
2021/06/16 05:44:11;;;;;;;7.13;6.50;;;22.50;99.90;;;;;;3607697;39;20343;-76
2021/06/16 05:46:37;;;;;;;7.20;6.60;;;22.50;99.90;;;;;;3616148;39;20380;-74
2021/06/16 05:49:03;;;;;;;7.03;6.43;;;22.50;99.90;;;;;;3605674;39;20402;-75
2021/06/16 05:51:29;;;;;;;7.83;6.90;;;22.40;99.90;;;;;;3615030;39;20352;-75
2021/06/16 05:53:55;;;;;;;7.28;6.60;;;22.50;99.90;;;;;;3605575;39;20471;-74
2021/06/16 05:56:21;;;;;;;7.28;6.60;;;22.60;99.90;;;;;;3603906;39;20391;-75
2021/06/16 05:58:47;;;;;;;7.43;6.72;;;22.60;99.90;;;;;;3603862;39;20476;-73
2021/06/16 06:01:14;;;;;;;7.97;7.20;;;;;;;;;;3612533;39;20406;-75
2021/06/16 06:03:42;;;;;;;7.03;6.43;;;22.80;99.90;;;;;;3613283;39;20536;-75
2021/06/16 06:06:08;;;;;;;6.90;6.30;;;22.90;99.90;;;;;;3601546;40;20401;-74
2021/06/16 06:08:35;;;;;;;7.50;6.80;;;22.90;99.90;;;;;;3610463;39;20424;-74
2021/06/16 06:11:01;;;;;;;7.15;6.45;;;22.90;99.90;;;;;;3608928;39;20634;-74
2021/06/16 06:13:27;;;;;;;7.07;6.43;;;;;;;;;;3593391;40;20416;-74
2021/06/16 06:15:53;;;;;;;6.77;6.13;;;23.10;99.90;;;;;;3592279;40;20403;-74
2021/06/16 06:18:20;;;;;;;7.97;7.17;;;23.20;99.90;;;;;;3612868;39;20407;-74
2021/06/16 06:20:46;;;;;;;7.57;6.88;;;;;;;;;;3606778;39;20822;-75
2021/06/16 06:23:13;;;;;;;7.88;7.18;;;;;;;;;;3612210;39;20618;-74
2021/06/16 06:25:39;;;;;;;7.85;7.15;;;;;;;;;;3602909;39;20406;-75
2021/06/16 06:28:05;;;;;;;7.38;6.68;;;;;;;;;;3603193;39;20507;-75
2021/06/16 06:30:31;;;;;;;8.30;7.47;;;23.30;99.90;;;;;;3611460;39;20350;-74
2021/06/16 06:32:57;;;;;;;7.68;6.88;;;;;;;;;;3601967;40;20862;-76
2021/06/16 06:35:25;;;;;;;7.65;6.95;;;;;;;;;;3592600;40;20465;-73
2021/06/16 06:37:51;;;;;;;10.30;7.22;;;;;;;;;;3601364;39;20406;-75
2021/06/16 06:40:17;;;;;;;11.48;8.25;;;;;;;;;;3599562;39;20423;-75
2021/06/16 06:42:43;;;;;;;11.30;7.75;;;23.60;99.90;;;;;;3597185;40;20365;-74
2021/06/16 06:45:10;;;;;;;11.23;7.93;;;23.80;99.90;;;;;;3601892;39;20372;-74
2021/06/16 06:47:36;;;;;;;9.45;7.70;;;23.80;99.90;;;;;;3601862;40;20356;-75
2021/06/16 06:50:02;;;;;;;7.10;6.50;;;23.90;99.90;;;;;;3601914;40;20353;-75
2021/06/16 06:52:30;;;;;;;7.80;7.00;;;;;;;;;;3599076;40;20478;-74
2021/06/16 06:54:58;;;;;;;7.57;6.88;;;23.90;99.90;;;;;;3603253;40;20804;-75
2021/06/16 06:57:23;;;;;;;8.77;7.47;;;24.10;99.90;;;;;;3602806;40;20360;-76
2021/06/16 06:59:50;;;;;;;7.28;5.93;;;24.10;99.90;;;;;;3603333;40;20361;-74
2021/06/16 07:02:16;;;;;;;8.43;6.30;;;24.20;99.90;;;;;;3603371;40;20384;-74
2021/06/16 07:04:42;;;;;;;7.47;6.70;;;24.20;99.90;;;;;;3601892;40;20420;-73
2021/06/16 07:07:08;;;;;;;8.90;7.83;;;24.30;99.90;;;;;;3600848;39;20482;-75
2021/06/16 07:09:35;;;;;;;7.60;6.83;;;24.40;99.90;;;;;;3602822;40;20352;-76
2021/06/16 07:12:02;;;;;;;9.07;8.02;;;24.30;99.90;;;;;;3602411;40;20389;-75
2021/06/16 07:14:28;;;;;;;8.73;7.43;;;24.20;99.90;;;;;;3601090;40;20404;-74
2021/06/16 07:16:54;;;;;;;7.40;6.70;;;24.10;99.90;;;;;;3600928;40;20380;-75
2021/06/16 07:19:20;;;;;;;7.45;6.72;;;24.20;99.90;;;;;;3602383;40;20815;-75
2021/06/16 07:21:45;;;;;;;6.53;5.93;;;24.40;99.90;;;;;;3602137;39;20754;-76
2021/06/16 07:24:12;;;;;;;7.97;6.57;;;24.60;99.90;;;;;;3600761;40;20409;-76
2021/06/16 07:26:39;;;;;;;7.15;6.45;;;;;;;;;;3601800;40;20385;-74
2021/06/16 07:29:05;;;;;;;8.35;7.55;;;;;;;;;;3592403;40;20469;-75
2021/06/16 07:31:32;;;;;;;8.15;7.45;;;;;;;;;;3596060;40;20657;-73
2021/06/16 07:33:58;;;;;;;11.43;8.93;;;;;;;;;;3600646;40;20361;-74
2021/06/16 07:36:24;;;;;;;11.88;10.60;;;;;;;;;;3597463;40;20789;-75
2021/06/16 07:38:50;;;;;;;12.60;11.38;;;;;;;;;;3601131;40;20696;-75
2021/06/16 07:41:16;;;;;;;13.52;12.13;;;;;;;;;;3603197;39;20748;-74
2021/06/16 07:43:44;;;;;;;12.38;11.13;;;;;;;;;;3610669;39;20368;-74
2021/06/16 07:46:10;;;;;;;14.40;11.85;;;;;;;;;;3600045;39;20679;-74
2021/06/16 07:48:36;;;;;;;13.13;11.82;;;;;;;;;;3610817;39;20358;-75
2021/06/16 07:51:02;;;;;;;13.05;11.95;;;;;;;;;;3611067;39;20428;-75
2021/06/16 07:53:28;;;;;;;12.75;11.55;;;24.80;99.90;;;;;;3611262;39;20375;-73
2021/06/16 07:55:54;;;;;;;14.27;12.32;;;25.50;99.90;;;;;;3611326;39;20372;-75
2021/06/16 07:58:20;;;;;;;14.68;13.07;;;25.60;99.90;;;;;;3609160;39;20760;-75
2021/06/16 08:00:48;;;;;;;11.85;10.65;;;25.60;99.90;;;;;;3610115;39;20371;-75
2021/06/16 08:03:14;;;;;;;14.02;12.63;;;25.70;99.90;;;;;;3609942;39;20395;-75
2021/06/16 08:05:40;;;;;;;12.77;11.68;;;;;;;;;;3609886;39;20437;-75
2021/06/16 08:08:07;;;;;;;12.65;11.45;;;;;;;;;;3610236;39;20813;-74
2021/06/16 08:10:33;;;;;;;14.40;12.95;;;25.80;99.90;;;;;;3607633;39;20390;-76
2021/06/16 08:12:59;;;;;;;14.98;13.48;;;26.20;99.90;;;;;;3599311;39;20801;-75
2021/06/16 08:15:26;;;;;;;18.10;16.20;;;26.20;99.90;;;;;;3607299;39;20383;-74
2021/06/16 08:17:55;;;;;;;14.05;12.60;;;25.80;99.90;;;;;;3604060;39;20403;-74
2021/06/16 08:20:21;;;;;;;15.75;14.25;;;25.80;99.90;;;;;;3593594;39;20402;-74
2021/06/16 08:22:47;;;;;;;15.60;13.98;;;25.90;99.90;;;;;;3611319;39;20382;-75
2021/06/16 08:25:13;;;;;;;17.30;15.45;;;26.00;99.90;;;;;;3600962;39;20410;-75
2021/06/16 08:27:40;;;;;;;18.20;15.70;;;26.00;99.90;;;;;;3601601;39;20395;-74
2021/06/16 08:30:07;;;;;;;16.08;14.38;;;26.00;99.90;;;;;;3607587;39;20367;-75
2021/06/16 08:32:33;;;;;;;15.25;13.60;;;26.10;99.90;;;;;;3610868;39;20751;-74
2021/06/16 08:35:01;;;;;;;17.70;15.90;;;26.00;99.90;;;;;;3596044;39;20391;-74
2021/06/16 08:37:27;;;;;;;18.67;16.77;;;25.90;99.90;;;;;;3600984;39;20760;-75
2021/06/16 08:39:53;;;;;;;19.55;17.60;;;25.90;99.90;;;;;;3599488;39;20407;-74
2021/06/16 08:42:19;;;;;;;18.63;16.83;;;25.90;99.90;;;;;;3603961;39;20445;-74
2021/06/16 08:44:45;;;;;;;24.30;20.02;;;25.80;99.90;;;;;;3606415;39;20395;-75
2021/06/16 08:47:12;;;;;;;23.75;21.30;;;26.10;99.90;;;;;;3599910;39;20396;-74
2021/06/16 08:49:38;;;;;;;24.25;21.75;;;26.10;99.90;;;;;;3610579;39;20643;-75
2021/06/16 08:52:05;;;;;;;23.13;20.83;;;25.90;99.90;;;;;;3600997;39;20391;-74
2021/06/16 08:54:31;;;;;;;23.23;20.83;;;25.90;99.90;;;;;;3600731;39;20398;-74
2021/06/16 08:56:57;;;;;;;24.00;19.92;;;25.70;99.90;;;;;;3608370;39;20404;-75
2021/06/16 08:59:23;;;;;;;21.50;19.33;;;25.50;99.90;;;;;;3600383;40;20617;-74
2021/06/16 09:01:49;;;;;;;20.10;17.97;;;25.70;99.90;;;;;;3608588;39;20371;-74
2021/06/16 09:04:43;;;;;;;20.83;18.73;;;25.90;99.90;;;;;;3600841;39;20407;-74
2021/06/16 09:07:14;;;;;;;22.17;18.23;;;;;;;;;;3610694;39;20376;-76
2021/06/16 09:09:40;;;;;;;18.25;16.40;;;26.00;99.90;;;;;;3610568;39;20383;-74
2021/06/16 09:12:07;;;;;;;18.05;16.17;;;26.50;99.90;;;;;;3608797;39;20617;-75
2021/06/16 09:14:34;;;;;;;19.77;17.77;;;26.30;99.60;;;;;;3610521;39;20643;-74
2021/06/16 09:17:02;;;;;;;19.50;17.50;;;26.50;98.80;;;;;;3600656;39;20402;-75
2021/06/16 09:19:37;;;;;;;21.60;19.35;;;;;;;;;;3608076;39;20663;-74
2021/06/16 09:22:06;;;;;;;20.13;18.00;;;;;;;;;;3610357;39;20452;-74
2021/06/16 09:24:43;;;;;;;20.73;18.10;;;;;;;;;;3600079;40;20352;-75
2021/06/16 09:27:09;;;;;;;21.45;19.13;;;;;;;;;;3607179;39;20419;-73
2021/06/16 09:29:36;;;;;;;21.05;18.80;;;;;;;;;;3600732;39;20528;-74
2021/06/16 09:32:03;;;;;;;24.20;20.50;;;;;;;;;;3599775;39;20392;-74
2021/06/16 09:34:29;;;;;;;20.02;18.02;;;26.60;99.40;;;;;;3609586;39;20378;-73
2021/06/16 09:36:58;;;;;;;26.00;21.95;;;27.00;98.50;;;;;;3610296;39;20363;-74
2021/06/16 09:39:25;;;;;;;21.83;19.05;;;27.00;98.50;;;;;;3600950;39;20517;-75
2021/06/16 09:41:55;;;;;;;20.98;18.83;;;27.00;98.70;;;;;;3610201;39;20351;-75
2021/06/16 09:44:37;;;;;;;20.60;18.53;;;;;;;;;;3606072;39;20427;-73
2021/06/16 09:47:10;;;;;;;17.92;16.17;;;;;;;;;;3604914;39;20359;-74
2021/06/16 09:49:46;;;;;;;19.15;16.45;;;;;;;;;;3609564;39;20363;-74
2021/06/16 09:52:26;;;;;;;20.05;17.58;;;;;;;;;;3604971;39;20370;-74
2021/06/16 09:54:52;;;;;;;19.23;17.33;;;;;;;;;;3609574;39;20767;-76
2021/06/16 09:57:19;;;;;;;16.65;14.85;;;27.10;98.70;;;;;;3609354;39;20430;-73
2021/06/16 09:59:46;;;;;;;15.80;14.20;;;26.70;98.50;;;;;;3599329;39;20472;-75
2021/06/16 10:02:15;;;;;;;18.23;15.90;;;26.90;97.70;;;;;;3609676;39;20379;-75
2021/06/16 10:04:44;;;;;;;15.93;13.73;;;27.00;97.20;;;;;;3596726;39;20454;-75
2021/06/16 10:07:15;;;;;;;15.02;13.48;;;;;;;;;;3609530;39;20368;-74
2021/06/16 10:09:47;;;;;;;13.38;12.02;;;;;;;;;;3599141;39;20404;-75
2021/06/16 10:12:13;;;;;;;13.80;12.50;;;;;;;;;;3610156;39;20359;-74
2021/06/16 10:14:41;;;;;;;18.92;15.18;;;;;;;;;;3609176;39;20410;-75
2021/06/16 10:17:07;;;;;;;13.45;12.05;;;;;;;;;;3609943;39;20354;-73
2021/06/16 10:19:34;;;;;;;14.85;13.35;;;;;;;;;;3603780;39;20368;-75
2021/06/16 10:22:01;;;;;;;15.77;13.68;;;;;;;;;;3600335;39;20490;-74
2021/06/16 10:24:28;;;;;;;12.68;11.38;;;;;;;;;;3609863;39;20355;-74
2021/06/16 10:26:56;;;;;;;14.52;11.93;;;;;;;;;;3599987;39;20760;-74
2021/06/16 10:29:27;;;;;;;15.75;14.05;;;27.20;97.40;;;;;;3609427;39;20347;-74
2021/06/16 10:31:54;;;;;;;15.27;13.65;;;28.40;95.30;;;;;;3577488;40;20384;-75
2021/06/16 10:34:20;;;;;;;17.35;15.65;;;28.40;95.10;;;;;;3577551;40;20388;-75
2021/06/16 10:37:02;;;;;;;14.23;12.73;;;28.60;94.90;;;;;;3567547;40;20424;-75
2021/06/16 10:39:28;;;;;;;19.45;17.35;;;;;;;;;;3577626;40;20416;-74
2021/06/16 10:41:55;;;;;;;18.88;16.95;;;;;;;;;;3577433;40;20360;-74
2021/06/16 10:44:23;;;;;;;20.13;18.10;;;28.70;95.20;;;;;;3574823;40;20496;-74
2021/06/16 10:46:51;;;;;;;18.15;15.70;;;28.50;94.00;;;;;;3572132;40;20518;-74
2021/06/16 10:49:50;;;;;;;22.02;19.83;;;28.20;95.10;;;;;;3573519;40;20827;-75
2021/06/16 10:52:18;;;;;;;19.85;17.85;;;28.20;94.90;;;;;;3573764;40;20470;-74
2021/06/16 10:54:53;;;;;;;20.05;17.95;;;28.40;94.50;;;;;;3557718;40;20456;-76
2021/06/16 10:57:19;;;;;;;17.23;15.40;;;;;;;;;;3573479;40;20465;-75
2021/06/16 11:00:01;;;;;;;20.00;17.48;;;28.70;95.30;;;;;;3577271;40;20507;-75
2021/06/16 11:02:57;;;;;;;19.60;17.80;;;28.70;93.70;;;;;;3576728;40;20415;-75
2021/06/16 11:05:28;;;;;;;18.37;16.43;;;;;;;;;;3537766;40;20403;-75
2021/06/16 11:07:54;;;;;;;19.02;16.48;;;28.40;94.00;;;;;;3559307;40;20436;-75
2021/06/16 11:10:21;;;;;;;24.55;16.45;;;28.10;94.60;;;;;;3606493;39;20387;-75
2021/06/16 11:12:47;;;;;;;19.42;17.42;;;;;;;;;;3605422;39;20635;-73
2021/06/16 11:15:30;;;;;;;18.95;17.02;;;;;;;;;;3606976;39;20355;-74
2021/06/16 11:17:58;;;;;;;13.77;12.48;;;28.40;95.80;;;;;;3587187;40;20374;-74
2021/06/16 11:20:26;;;;;;;13.63;12.20;;;29.60;93.50;;;;;;3586557;40;20386;-74
2021/06/16 11:22:54;;;;;;;16.50;14.80;;;29.30;92.60;;;;;;3587080;40;20422;-74
2021/06/16 11:25:28;;;;;;;15.50;13.90;;;;;;;;;;3577340;40;20418;-74
2021/06/16 11:28:04;;;;;;;17.77;15.87;;;29.40;93.30;;;;;;3586825;40;20739;-75
2021/06/16 11:30:33;;;;;;;13.80;12.38;;;29.40;91.40;;;;;;3582799;40;20378;-74
2021/06/16 11:33:26;;;;;;;12.82;11.63;;;29.40;91.80;;;;;;3582312;40;20398;-73
2021/06/16 11:36:01;;;;;;;12.20;11.10;;;29.40;91.60;;;;;;3549021;40;20408;-75
2021/06/16 11:38:31;;;;;;;12.13;10.88;;;29.80;90.70;;;;;;3548110;40;20403;-75
2021/06/16 11:41:03;;;;;;;13.27;11.90;;;29.90;90.80;;;;;;3547737;40;20399;-75
2021/06/16 11:43:34;;;;;;;10.65;9.55;;;30.10;91.20;;;;;;3547465;40;20487;-73
2021/06/16 11:46:01;;;;;;;12.57;11.38;;;;;;;;;;3545062;40;20480;-74
2021/06/16 11:48:27;;;;;;;11.95;10.82;;;31.10;99.90;;;;;;3551698;40;20393;-74
2021/06/16 11:50:53;;;;;;;14.85;11.55;;;30.00;94.80;;;;;;3559392;40;20676;-74
2021/06/16 11:53:28;;;;;;;15.47;11.90;;;29.90;95.50;;;;;;3556508;40;20411;-74
2021/06/16 11:55:54;;;;;;;12.27;11.07;;;30.20;94.40;;;;;;3552057;40;20469;-75
2021/06/16 11:58:25;;;;;;;12.70;11.07;;;30.60;97.00;;;;;;3548967;40;20393;-75
2021/06/16 12:00:53;;;;;;;14.50;11.60;;;;;;;;;;3579145;40;20402;-74
2021/06/16 12:03:19;;;;;;;14.45;13.05;;;30.50;86.90;;;;;;3584336;40;20395;-75
2021/06/16 12:05:45;;;;;;;16.30;14.15;;;30.60;89.70;;;;;;3579791;40;20445;-74
2021/06/16 12:08:21;;;;;;;16.50;14.70;;;29.90;89.40;;;;;;3583457;40;20838;-74
2021/06/16 12:10:49;;;;;;;18.52;16.13;;;30.00;90.90;;;;;;3581565;40;20478;-74
2021/06/16 12:13:15;;;;;;;16.75;15.07;;;30.00;91.00;;;;;;3577412;40;20402;-74
2021/06/16 12:15:41;;;;;;;13.43;12.03;;;30.20;90.20;;;;;;3577969;40;20485;-74
2021/06/16 12:18:12;;;;;;;14.50;13.20;;;30.20;90.30;;;;;;3577710;40;20501;-74
2021/06/16 12:20:40;;;;;;;18.48;13.10;;;30.00;90.50;;;;;;3579546;40;20395;-74
2021/06/16 12:23:24;;;;;;;11.53;10.43;;;30.20;90.20;;;;;;3585947;40;20719;-74
2021/06/16 12:26:01;;;;;;;14.82;13.32;;;;;;;;;;3582977;40;20395;-75
2021/06/16 12:28:27;;;;;;;12.57;11.23;;;30.50;90.20;;;;;;3577409;40;20786;-74
2021/06/16 12:30:56;;;;;;;10.35;8.77;;;;;;;;;;3586645;40;20375;-75
2021/06/16 12:33:37;;;;;;;11.87;9.77;;;30.50;85.80;;;;;;3587479;40;20443;-75
2021/06/16 12:36:07;;;;;;;11.18;9.25;;;30.00;87.40;;;;;;3587295;40;20371;-74
2021/06/16 12:38:39;;;;;;;13.50;9.90;;;29.90;86.90;;;;;;3587315;40;20371;-74
2021/06/16 12:41:24;;;;;;;11.25;10.05;;;30.30;88.60;;;;;;3587008;40;20631;-74
2021/06/16 12:43:50;;;;;;;11.13;9.85;;;30.70;87.10;;;;;;3568412;40;20415;-75
2021/06/16 12:46:16;;;;;;;10.65;8.15;;;30.90;85.80;;;;;;3589088;39;20432;-74
2021/06/16 12:48:43;;;;;;;8.15;6.18;;;31.20;85.00;;;;;;3604872;39;20439;-75
2021/06/16 12:51:09;;;;;;;11.18;9.60;;;31.40;83.10;;;;;;3605087;39;20886;-74
2021/06/16 12:53:37;;;;;;;8.10;5.83;;;31.40;83.30;;;;;;3601182;39;20365;-75
2021/06/16 12:56:05;;;;;;;8.35;7.55;;;;;;;;;;3597993;39;20374;-75
2021/06/16 12:58:44;;;;;;;9.45;8.43;;;;;;;;;;3607085;39;20366;-74
2021/06/16 13:01:16;;;;;;;9.90;8.90;;;31.90;81.00;;;;;;3607682;39;20740;-75
2021/06/16 13:03:47;;;;;;;9.23;8.05;;;32.10;80.80;;;;;;3607697;39;20413;-75
2021/06/16 13:06:13;;;;;;;11.13;10.00;;;32.10;82.00;;;;;;3599764;39;20407;-74
2021/06/16 13:08:41;;;;;;;9.43;8.30;;;31.90;81.60;;;;;;3608999;39;20363;-74
2021/06/16 13:11:18;;;;;;;10.85;9.75;;;32.00;81.60;;;;;;3599072;39;20405;-74
2021/06/16 13:13:46;;;;;;;11.70;10.60;;;32.00;81.50;;;;;;3599810;39;20485;-74
2021/06/16 13:16:21;;;;;;;12.02;9.75;;;;;;;;;;3608954;39;20478;-74
2021/06/16 13:18:47;;;;;;;15.95;10.35;;;31.30;82.10;;;;;;3608634;39;20367;-74
2021/06/16 13:21:13;;;;;;;9.73;8.17;;;30.60;82.40;;;;;;3599525;39;20842;-75
2021/06/16 13:23:54;;;;;;;11.10;10.05;;;30.70;85.30;;;;;;3608872;39;20367;-74
2021/06/16 13:26:21;;;;;;;11.02;9.40;;;31.00;82.80;;;;;;3566973;40;20741;-74
2021/06/16 13:28:58;;;;;;;10.57;9.53;;;30.80;83.40;;;;;;3567373;40;20399;-74
2021/06/16 13:31:25;;;;;;;10.65;9.32;;;30.80;84.60;;;;;;3562441;40;20447;-74
2021/06/16 13:33:53;;;;;;;10.13;8.38;;;30.90;82.80;;;;;;3566842;40;20950;-74
2021/06/16 13:36:21;;;;;;;9.20;8.30;;;31.30;81.60;;;;;;3566995;40;20463;-75
2021/06/16 13:38:52;;;;;;;11.63;9.07;;;31.60;80.60;;;;;;3567180;40;20794;-74